createdAt,value
2023-11-07T00:02:20.371Z,8.80
2023-11-07T00:05:23.892Z,8.72
2023-11-07T00:08:26.432Z,8.69
2023-11-07T00:11:29.321Z,8.67
2023-11-07T00:14:32.250Z,8.62
2023-11-07T00:17:35.735Z,8.62
2023-11-07T00:20:38.466Z,8.46
2023-11-07T00:23:41.481Z,8.54
2023-11-07T00:26:44.063Z,8.57
2023-11-07T00:29:50.093Z,8.53
2023-11-07T00:32:54.836Z,8.47
2023-11-07T00:35:57.821Z,8.43
2023-11-07T00:39:02.230Z,8.41
2023-11-07T00:42:05.987Z,8.35
2023-11-07T00:45:09.889Z,8.34
2023-11-07T00:48:12.997Z,8.33
2023-11-07T00:51:15.828Z,8.40
2023-11-07T00:54:18.800Z,8.39
2023-11-07T00:57:21.382Z,8.41
2023-11-07T01:00:24.351Z,8.49
2023-11-07T01:03:27.181Z,8.59
2023-11-07T01:06:30.249Z,8.63
2023-11-07T01:09:32.851Z,8.64
2023-11-07T01:12:35.612Z,8.59
2023-11-07T01:15:38.345Z,8.60
2023-11-07T01:18:41.440Z,8.59
2023-11-07T01:21:44.295Z,8.60
2023-11-07T01:24:47.348Z,8.51
2023-11-07T01:27:49.910Z,8.57
2023-11-07T01:30:52.825Z,8.54
2023-11-07T01:33:55.985Z,8.59
2023-11-07T01:36:58.852Z,8.64
2023-11-07T01:40:01.477Z,8.58
2023-11-07T01:43:15.215Z,8.61
2023-11-07T01:46:17.805Z,8.57
2023-11-07T01:49:21.198Z,8.47
2023-11-07T01:52:23.796Z,8.57
2023-11-07T01:55:26.935Z,8.55
2023-11-07T01:58:29.525Z,8.44
2023-11-07T02:01:35.563Z,8.41
2023-11-07T02:04:39.540Z,8.49
2023-11-07T02:07:42.063Z,8.54
2023-11-07T02:10:44.943Z,8.51
2023-11-07T02:13:49.064Z,8.55
2023-11-07T02:16:52.249Z,8.44
2023-11-07T02:19:55.447Z,8.44
2023-11-07T02:23:05.893Z,8.44
2023-11-07T02:26:08.893Z,8.34
2023-11-07T02:29:11.465Z,8.35
2023-11-07T02:32:14.280Z,8.30
2023-11-07T02:35:17.018Z,8.33
2023-11-07T02:38:21.297Z,8.24
2023-11-07T02:41:23.822Z,8.23
2023-11-07T02:44:27.054Z,8.07
2023-11-07T02:47:32.840Z,7.82
2023-11-07T02:50:35.807Z,7.69
2023-11-07T02:53:39.618Z,7.85
2023-11-07T02:56:43.685Z,7.83
2023-11-07T02:59:47.467Z,7.75
2023-11-07T03:02:50.485Z,7.64
2023-11-07T03:05:53.350Z,7.73
2023-11-07T03:08:56.924Z,7.90
2023-11-07T03:11:59.683Z,8.06
2023-11-07T03:15:02.681Z,8.04
2023-11-07T03:18:06.058Z,8.03
2023-11-07T03:21:10.094Z,8.13
2023-11-07T03:24:12.815Z,8.02
2023-11-07T03:27:16.545Z,8.01
2023-11-07T03:30:19.012Z,7.90
2023-11-07T03:33:22.184Z,7.85
2023-11-07T03:36:24.794Z,7.87
2023-11-07T03:39:28.544Z,7.89
2023-11-07T03:42:31.054Z,7.89
2023-11-07T03:45:34.056Z,7.85
2023-11-07T03:48:37.269Z,7.83
2023-11-07T03:51:40.817Z,7.73
2023-11-07T03:54:43.395Z,7.79
2023-11-07T03:57:46.329Z,7.79
2023-11-07T04:00:49.083Z,7.71
2023-11-07T04:03:52.217Z,7.66
2023-11-07T04:06:55.636Z,7.76
2023-11-07T04:09:59.086Z,7.80
2023-11-07T04:13:09.159Z,7.80
2023-11-07T04:16:12.038Z,7.74
2023-11-07T04:19:14.693Z,7.86
2023-11-07T04:22:17.654Z,7.78
2023-11-07T04:25:20.745Z,7.76
2023-11-07T04:28:23.826Z,7.77
2023-11-07T04:31:28.876Z,7.73
2023-11-07T04:34:31.733Z,7.88
2023-11-07T04:37:34.708Z,7.84
2023-11-07T04:40:39.479Z,7.70
2023-11-07T04:43:43.288Z,7.64
2023-11-07T04:46:46.162Z,7.47
2023-11-07T04:49:49.876Z,7.50
2023-11-07T04:52:54.186Z,7.45
2023-11-07T04:55:57.077Z,7.46
2023-11-07T04:59:00.722Z,7.48
2023-11-07T05:02:04.832Z,7.28
2023-11-07T05:05:07.948Z,7.34
2023-11-07T05:08:10.440Z,7.19
2023-11-07T05:11:18.810Z,7.16
2023-11-07T05:14:22.209Z,6.86
2023-11-07T05:17:25.187Z,7.05
2023-11-07T05:20:27.853Z,6.98
2023-11-07T05:23:30.773Z,7.04
2023-11-07T05:26:33.299Z,7.12
2023-11-07T05:29:36.332Z,7.05
2023-11-07T05:32:39.043Z,6.88
2023-11-07T05:35:41.880Z,6.83
2023-11-07T05:38:45.066Z,7.01
2023-11-07T05:41:48.986Z,7.11
2023-11-07T05:44:51.666Z,6.56
2023-11-07T05:47:56.322Z,6.35
2023-11-07T05:51:01.841Z,6.41
2023-11-07T05:54:05.389Z,6.36
2023-11-07T05:57:07.924Z,6.62
2023-11-07T06:00:12.416Z,6.68
2023-11-07T06:03:15.442Z,6.76
2023-11-07T06:06:18.128Z,6.75
2023-11-07T06:09:20.950Z,6.91
2023-11-07T06:12:23.492Z,7.03
2023-11-07T06:15:26.932Z,7.09
2023-11-07T06:18:29.518Z,7.14
2023-11-07T06:21:32.819Z,7.27
2023-11-07T06:24:35.539Z,7.66
2023-11-07T06:27:38.418Z,8.11
2023-11-07T06:30:41.290Z,8.48
2023-11-07T06:33:44.811Z,8.36
2023-11-07T06:36:47.383Z,9.39
2023-11-07T06:39:50.816Z,9.02
2023-11-07T06:42:54.119Z,8.66
2023-11-07T06:45:57.171Z,7.97
2023-11-07T06:49:02.450Z,7.35
2023-11-07T06:52:06.597Z,6.89
2023-11-07T06:55:13.598Z,7.27
2023-11-07T06:58:16.576Z,7.69
2023-11-07T07:01:20.651Z,7.82
2023-11-07T07:04:23.745Z,8.17
2023-11-07T07:07:26.530Z,8.31
2023-11-07T07:10:29.798Z,8.82
2023-11-07T07:13:32.984Z,9.57
2023-11-07T07:16:35.810Z,10.94
2023-11-07T07:19:38.981Z,11.75
2023-11-07T07:22:43.375Z,11.80
2023-11-07T07:25:47.142Z,12.07
2023-11-07T07:28:53.209Z,12.40
2023-11-07T07:31:58.073Z,13.01
2023-11-07T07:35:02.621Z,13.34
2023-11-07T07:38:05.229Z,13.43
2023-11-07T07:41:08.907Z,14.11
2023-11-07T07:44:13.565Z,14.46
2023-11-07T07:47:16.819Z,14.49
2023-11-07T07:50:20.214Z,14.13
2023-11-07T07:53:23.210Z,14.15
2023-11-07T07:56:25.719Z,14.50
2023-11-07T07:59:28.957Z,15.24
2023-11-07T08:02:31.836Z,15.15
2023-11-07T08:05:40.818Z,15.04
2023-11-07T08:08:44.649Z,15.34
2023-11-07T08:11:51.840Z,15.66
2023-11-07T08:14:54.536Z,15.87
2023-11-07T08:17:57.429Z,15.92
2023-11-07T08:21:00.110Z,16.96
2023-11-07T08:24:03.392Z,16.98
2023-11-07T08:27:06.153Z,16.89
2023-11-07T08:30:14.137Z,16.98
2023-11-07T08:33:17.194Z,16.68
2023-11-07T08:36:20.333Z,17.00
2023-11-07T08:39:26.049Z,16.48
2023-11-07T08:42:29.530Z,17.00
2023-11-07T08:45:34.052Z,17.57
2023-11-07T08:48:37.657Z,17.33
2023-11-07T08:51:40.237Z,17.40
2023-11-07T08:54:43.182Z,17.56
2023-11-07T08:57:50.785Z,17.09
2023-11-07T09:00:54.295Z,16.91
2023-11-07T09:03:57.211Z,17.62
2023-11-07T09:07:02.156Z,17.00
2023-11-07T09:10:06.071Z,16.99
2023-11-07T09:13:12.051Z,16.64
2023-11-07T09:16:14.735Z,17.34
2023-11-07T09:19:19.765Z,17.70
2023-11-07T09:22:23.891Z,17.25
2023-11-07T09:25:26.893Z,17.06
2023-11-07T09:28:29.503Z,18.13
2023-11-07T09:31:32.384Z,17.76
2023-11-07T09:34:35.070Z,19.10
2023-11-07T09:37:41.438Z,18.51
2023-11-07T09:40:45.638Z,18.41
2023-11-07T09:43:51.347Z,17.69
2023-11-07T09:46:57.036Z,19.35
2023-11-07T09:50:00.256Z,18.49
2023-11-07T09:53:06.143Z,18.60
2023-11-07T09:56:12.067Z,19.73
2023-11-07T09:59:24.567Z,19.68
2023-11-07T10:02:27.718Z,20.16
2023-11-07T10:05:38.008Z,20.22
2023-11-07T10:08:44.045Z,19.01
2023-11-07T10:11:50.851Z,18.53
2023-11-07T10:14:54.051Z,17.98
2023-11-07T10:18:01.516Z,17.41
2023-11-07T10:21:04.418Z,17.20
2023-11-07T10:24:08.270Z,16.22
2023-11-07T10:27:14.985Z,16.54
2023-11-07T10:30:18.397Z,18.80
2023-11-07T10:33:30.122Z,18.74
2023-11-07T10:36:40.109Z,19.25
2023-11-07T10:39:57.010Z,19.68
2023-11-07T10:43:02.366Z,17.94
2023-11-07T10:46:10.146Z,17.10
2023-11-07T10:49:15.112Z,16.65
2023-11-07T10:52:19.015Z,16.10
2023-11-07T10:55:21.887Z,15.30
2023-11-07T10:58:29.106Z,14.71
2023-11-07T11:01:37.397Z,14.92
2023-11-07T11:04:42.979Z,15.06
2023-11-07T11:07:52.754Z,14.60
2023-11-07T11:11:04.164Z,14.12
2023-11-07T11:14:09.793Z,14.40
2023-11-07T11:17:33.558Z,14.63
2023-11-07T11:20:51.826Z,14.35
2023-11-07T11:23:57.883Z,14.50
2023-11-07T11:27:24.545Z,14.78
2023-11-07T11:30:28.951Z,15.20
2023-11-07T11:33:32.010Z,15.53
2023-11-07T11:36:38.177Z,15.13
2023-11-07T11:39:44.267Z,14.82
2023-11-07T11:43:05.620Z,14.83
2023-11-07T11:46:18.316Z,14.85
2023-11-07T11:49:23.217Z,14.71
2023-11-07T11:52:35.898Z,15.06
2023-11-07T11:56:00.674Z,14.99
2023-11-07T11:59:12.778Z,15.44
2023-11-07T12:02:37.958Z,15.27
2023-11-07T12:05:41.162Z,15.35
2023-11-07T12:08:48.587Z,15.05
2023-11-07T12:11:51.470Z,15.08
2023-11-07T12:14:59.185Z,15.13
2023-11-07T12:18:04.317Z,14.89
2023-11-07T12:21:07.203Z,14.88
2023-11-07T12:24:11.733Z,15.31
2023-11-07T12:27:20.643Z,15.00
2023-11-07T12:30:24.184Z,14.92
2023-11-07T12:33:30.343Z,15.02
2023-11-07T12:36:34.993Z,14.75
2023-11-07T12:39:38.908Z,14.64
2023-11-07T12:42:41.923Z,14.72
2023-11-07T12:45:48.964Z,14.78
2023-11-07T12:48:54.283Z,14.36
2023-11-07T12:51:57.228Z,14.61
2023-11-07T12:55:16.483Z,14.48
2023-11-07T12:58:29.157Z,14.52
2023-11-07T13:01:32.049Z,14.61
2023-11-07T13:04:35.832Z,14.66
2023-11-07T13:07:39.093Z,14.03
2023-11-07T13:10:42.661Z,14.18
2023-11-07T13:13:47.088Z,14.19
2023-11-07T13:16:51.057Z,14.63
2023-11-07T13:19:53.825Z,14.41
2023-11-07T13:22:56.368Z,14.38
2023-11-07T13:25:59.186Z,14.30
2023-11-07T13:29:02.325Z,13.55
2023-11-07T13:32:07.032Z,13.53
2023-11-07T13:35:09.914Z,13.53
2023-11-07T13:38:12.749Z,13.94
2023-11-07T13:41:17.050Z,13.88
2023-11-07T13:44:20.092Z,14.06
2023-11-07T13:47:22.749Z,14.02
2023-11-07T13:50:25.550Z,13.93
2023-11-07T13:53:28.188Z,13.86
2023-11-07T13:56:31.433Z,14.07
2023-11-07T13:59:34.074Z,13.94
2023-11-07T14:02:41.202Z,13.77
2023-11-07T14:05:44.436Z,13.54
2023-11-07T14:08:47.143Z,13.72
2023-11-07T14:11:50.175Z,13.69
2023-11-07T14:14:52.725Z,13.77
2023-11-07T14:17:55.552Z,13.53
2023-11-07T14:20:59.856Z,13.84
2023-11-07T14:24:03.782Z,13.69
2023-11-07T14:27:06.521Z,13.76
2023-11-07T14:30:26.891Z,13.63
2023-11-07T14:33:32.973Z,13.83
2023-11-07T14:36:36.130Z,13.80
2023-11-07T14:39:38.697Z,13.74
2023-11-07T14:42:41.707Z,13.45
2023-11-07T14:45:44.959Z,13.51
2023-11-07T14:48:48.336Z,13.78
2023-11-07T14:51:50.996Z,13.51
2023-11-07T14:54:55.281Z,13.49
2023-11-07T14:57:58.049Z,13.74
2023-11-07T15:01:01.345Z,13.55
2023-11-07T15:04:05.510Z,13.53
2023-11-07T15:07:08.771Z,13.59
2023-11-07T15:10:14.397Z,13.50
2023-11-07T15:13:17.239Z,13.70
2023-11-07T15:16:21.392Z,13.39
2023-11-07T15:19:24.208Z,13.35
2023-11-07T15:22:26.772Z,13.38
2023-11-07T15:25:32.084Z,13.18
2023-11-07T15:28:35.320Z,13.11
2023-11-07T15:31:39.409Z,12.90
2023-11-07T15:34:42.071Z,12.93
2023-11-07T15:37:46.061Z,12.57
2023-11-07T15:40:48.647Z,12.77
2023-11-07T15:43:52.833Z,12.72
2023-11-07T15:46:55.364Z,12.39
2023-11-07T15:49:58.224Z,12.50
2023-11-07T15:53:07.676Z,12.55
2023-11-07T15:56:13.189Z,12.67
2023-11-07T15:59:16.420Z,12.42
2023-11-07T16:02:19.299Z,12.24
2023-11-07T16:05:27.499Z,12.26
2023-11-07T16:08:31.037Z,12.49
2023-11-07T16:11:33.986Z,12.30
2023-11-07T16:14:36.722Z,12.26
2023-11-07T16:17:46.619Z,12.33
2023-11-07T16:20:49.213Z,12.39
2023-11-07T16:23:52.008Z,12.44
2023-11-07T16:26:54.836Z,12.33
2023-11-07T16:30:00.509Z,12.13
2023-11-07T16:33:03.236Z,12.17
2023-11-07T16:36:06.326Z,12.13
2023-11-07T16:39:09.680Z,12.28
2023-11-07T16:42:13.144Z,11.94
2023-11-07T16:45:16.544Z,11.88
2023-11-07T16:48:19.764Z,12.09
2023-11-07T16:51:22.337Z,12.13
2023-11-07T16:54:25.320Z,12.11
2023-11-07T16:57:27.794Z,12.17
2023-11-07T17:00:31.426Z,11.89
2023-11-07T17:03:34.123Z,11.59
2023-11-07T17:06:37.142Z,11.55
2023-11-07T17:09:39.719Z,11.25
2023-11-07T17:12:43.631Z,11.45
2023-11-07T17:15:46.235Z,11.52
2023-11-07T17:18:49.568Z,11.44
2023-11-07T17:21:54.233Z,11.40
2023-11-07T17:24:57.452Z,11.46
2023-11-07T17:27:59.920Z,11.67
2023-11-07T17:31:03.989Z,11.69
2023-11-07T17:34:12.879Z,11.80
2023-11-07T17:37:15.820Z,11.71
2023-11-07T17:40:18.456Z,11.84
2023-11-07T17:43:21.423Z,11.79
2023-11-07T17:46:24.020Z,11.87
2023-11-07T17:49:29.745Z,11.76
2023-11-07T17:52:32.367Z,11.78
2023-11-07T17:55:35.921Z,11.73
2023-11-07T17:58:38.767Z,11.65
2023-11-07T18:01:42.583Z,11.45
2023-11-07T18:04:45.491Z,11.41
2023-11-07T18:07:48.328Z,11.45
2023-11-07T18:11:04.241Z,11.28
2023-11-07T18:14:07.849Z,11.39
2023-11-07T18:17:11.149Z,11.49
2023-11-07T18:20:16.216Z,11.63
2023-11-07T18:23:22.074Z,11.70
2023-11-07T18:26:25.358Z,11.73
2023-11-07T18:29:28.646Z,11.41
2023-11-07T18:32:31.612Z,11.48
2023-11-07T18:35:36.819Z,11.70
2023-11-07T18:38:40.796Z,11.54
2023-11-07T18:41:45.349Z,11.37
2023-11-07T18:44:51.244Z,11.31
2023-11-07T18:47:54.912Z,11.36
2023-11-07T18:51:03.483Z,11.12
2023-11-07T18:54:06.534Z,11.24
2023-11-07T18:57:13.963Z,11.37
2023-11-07T19:00:22.236Z,11.47
2023-11-07T19:03:27.072Z,11.48
2023-11-07T19:06:30.548Z,11.30
2023-11-07T19:09:33.436Z,11.26
2023-11-07T19:12:37.858Z,11.19
2023-11-07T19:15:40.776Z,11.30
2023-11-07T19:18:43.733Z,11.36
2023-11-07T19:21:46.872Z,11.39
2023-11-07T19:24:50.225Z,11.14
2023-11-07T19:27:54.429Z,11.02
2023-11-07T19:30:57.899Z,11.17
2023-11-07T19:34:00.974Z,11.06
2023-11-07T19:37:05.603Z,10.98
2023-11-07T19:40:09.028Z,10.86
2023-11-07T19:43:12.580Z,10.75
2023-11-07T19:46:18.497Z,10.78
2023-11-07T19:49:25.146Z,10.76
2023-11-07T19:52:27.767Z,10.70
2023-11-07T19:55:31.502Z,10.57
2023-11-07T20:01:37.411Z,10.62
2023-11-07T20:04:40.541Z,10.64
2023-11-07T20:07:51.357Z,10.69
2023-11-07T20:10:59.689Z,10.84
2023-11-07T20:14:04.653Z,10.68
2023-11-07T20:17:15.248Z,10.71
2023-11-07T20:20:20.774Z,10.87
2023-11-07T20:23:26.722Z,10.94
2023-11-07T20:26:29.538Z,10.98
2023-11-07T20:29:33.924Z,10.99
2023-11-07T20:32:36.516Z,10.90
2023-11-07T20:35:40.763Z,11.00
2023-11-07T20:38:47.280Z,11.11
2023-11-07T20:41:51.614Z,11.08
2023-11-07T20:45:01.086Z,11.26
2023-11-07T20:48:11.304Z,11.33
2023-11-07T20:51:14.192Z,11.30
2023-11-07T20:54:17.453Z,11.31
2023-11-07T20:57:22.518Z,11.04
2023-11-07T21:00:25.861Z,11.03
2023-11-07T21:03:28.955Z,11.05
2023-11-07T21:06:32.216Z,10.96
2023-11-07T21:09:35.154Z,11.08
2023-11-07T21:12:38.713Z,11.22
2023-11-07T21:15:41.344Z,11.30
2023-11-07T21:18:46.451Z,10.99
2023-11-07T21:21:49.297Z,10.93
2023-11-07T21:24:52.311Z,10.86
2023-11-07T21:27:55.647Z,10.86
2023-11-07T21:31:02.118Z,10.95
2023-11-07T21:34:07.831Z,10.92
2023-11-07T21:37:12.386Z,11.10
2023-11-07T21:40:15.071Z,10.94
2023-11-07T21:43:17.901Z,10.96
2023-11-07T21:46:20.434Z,11.06
2023-11-07T21:49:23.412Z,11.08
2023-11-07T21:52:25.992Z,10.97
2023-11-07T21:55:29.413Z,10.93
2023-11-07T21:58:32.579Z,10.87
2023-11-07T22:01:35.623Z,10.90
2023-11-07T22:04:39.737Z,10.88
2023-11-07T22:07:43.630Z,10.83
2023-11-07T22:10:48.821Z,11.00
2023-11-07T22:13:51.471Z,11.05
2023-11-07T22:16:54.431Z,10.86
2023-11-07T22:19:59.825Z,10.82
2023-11-07T22:23:02.611Z,10.85
2023-11-07T22:26:05.245Z,10.81
2023-11-07T22:29:08.108Z,10.89
2023-11-07T22:32:11.172Z,10.87
2023-11-07T22:35:14.198Z,10.97
2023-11-07T22:38:16.893Z,10.97
2023-11-07T22:41:20.220Z,10.95
2023-11-07T22:44:22.834Z,11.14
2023-11-07T22:47:25.727Z,11.07
2023-11-07T22:50:28.704Z,10.66
2023-11-07T22:53:31.583Z,10.78
2023-11-07T22:56:35.941Z,10.87
2023-11-07T22:59:39.461Z,10.87
2023-11-07T23:02:42.029Z,10.95
2023-11-07T23:05:45.335Z,10.86
2023-11-07T23:08:47.947Z,11.02
2023-11-07T23:11:50.832Z,10.96
2023-11-07T23:14:53.354Z,10.79
2023-11-07T23:17:56.195Z,10.80
2023-11-07T23:20:58.722Z,10.89
2023-11-07T23:24:02.539Z,10.75
2023-11-07T23:27:06.038Z,10.79
2023-11-07T23:30:09.136Z,10.74
2023-11-07T23:33:12.035Z,10.89
2023-11-07T23:36:15.144Z,10.79
2023-11-07T23:39:17.802Z,10.75
2023-11-07T23:42:20.622Z,10.79
2023-11-07T23:45:23.359Z,10.83
2023-11-07T23:48:26.898Z,10.69
2023-11-07T23:51:29.449Z,10.52
2023-11-07T23:54:32.966Z,10.71
2023-11-07T23:57:35.762Z,10.64
